Time;durP1;ratioP1;P1;durP2;ratioP2;P2;SDS_P1;SDS_P2;PMS_P1;PMS_P2;Temp;Humidity;BMP_temperature;BMP_pressure;BME280_temperature;BME280_humidity;BME280_pressure;Samples;Min_cycle;Max_cycle;Signal;HPM_P1;HPM_P2
2022/01/28 00:04:23;;;;;;;12.53;6.87;;;4.10;99.90;;;2.39;81.52;100247.38;10391589;28;96711;-76
2022/01/28 00:09:26;;;;;;;16.10;8.07;;;4.20;99.90;;;2.46;81.26;100239.06;10396354;28;96646;-76
2022/01/28 00:14:38;;;;;;;16.77;8.37;;;4.20;99.90;;;2.51;80.87;100223.81;10417328;27;96592;-77
2022/01/28 00:40:59;;;;;;;18.65;9.02;;;4.20;99.90;;;2.24;80.89;100230.19;10374570;28;96792;-77
2022/01/28 00:46:02;;;;;;;19.17;10.23;;;4.10;99.90;;;2.28;81.02;100251.75;10357855;28;96535;-77
2022/01/28 00:51:05;;;;;;;18.47;9.43;;;4.10;99.90;;;2.30;80.94;100234.16;10425664;27;96635;-78
2022/01/28 00:56:08;;;;;;;20.57;10.17;;;4.10;99.90;;;2.28;80.91;100236.88;10399781;28;96655;-77
2022/01/28 01:01:11;;;;;;;21.67;11.40;;;4.10;99.90;;;2.28;81.02;100221.16;10378779;28;98133;-77
2022/01/28 01:06:15;;;;;;;26.13;11.97;;;4.10;99.90;;;2.26;81.11;100230.06;10425715;27;98204;-77
2022/01/28 01:11:21;;;;;;;23.20;12.20;;;4.10;99.90;;;2.25;81.17;100220.53;10422067;27;96364;-77
2022/01/28 01:16:44;;;;;;;25.50;12.47;;;4.00;99.90;;;2.23;81.29;100217.19;10427996;27;96517;-77
2022/01/28 01:21:54;;;;;;;23.83;11.80;;;4.00;99.90;;;2.25;81.55;100218.75;10409372;27;96525;-77
2022/01/28 01:26:59;;;;;;;24.87;12.53;;;4.00;99.90;;;2.27;81.29;100218.63;10416011;27;96960;-77
2022/01/28 01:32:12;;;;;;;21.07;10.83;;;4.00;99.90;;;2.28;81.05;100212.44;10394557;28;96481;-77
2022/01/28 01:37:15;;;;;;;21.23;11.60;;;4.10;99.90;;;2.29;80.91;100190.53;10380300;28;96551;-77
2022/01/28 01:42:33;;;;;;;21.07;11.93;;;4.10;99.90;;;2.31;80.87;100188.63;10431036;27;96432;-76
2022/01/28 01:52:58;;;;;;;21.17;10.17;;;4.10;99.90;;;2.33;80.69;100190.16;10413739;28;96575;-77
2022/01/28 01:58:01;;;;;;;21.33;10.63;;;4.20;99.90;;;2.35;80.21;100200.56;10387954;28;97118;-77
2022/01/28 02:03:04;;;;;;;17.23;9.77;;;4.10;99.90;;;2.34;79.99;100204.09;10379108;28;96460;-77
2022/01/28 02:08:07;;;;;;;17.60;9.30;;;4.20;99.90;;;2.37;80.05;100188.16;10390527;28;97276;-77
2022/01/28 02:13:10;;;;;;;15.17;9.10;;;4.20;99.90;;;2.39;79.46;100192.31;10355918;28;97094;-77
2022/01/28 02:18:13;;;;;;;15.43;8.50;;;4.20;99.90;;;2.40;79.15;100186.16;10365950;27;96671;-77
2022/01/28 02:23:18;;;;;;;14.77;7.97;;;4.20;99.90;;;2.44;79.13;100171.00;10426580;27;97563;-77
2022/01/28 02:28:22;;;;;;;13.33;8.23;;;4.20;99.90;;;2.48;78.84;100158.50;10374491;28;96599;-77
2022/01/28 02:33:26;;;;;;;13.20;7.77;;;4.20;99.90;;;2.51;78.73;100171.34;10393075;27;96558;-77
2022/01/28 02:38:30;;;;;;;12.53;6.47;;;4.30;99.90;;;2.56;78.36;100166.59;10441397;27;97069;-77
2022/01/28 02:48:39;;;;;;;10.53;5.90;;;4.40;99.90;;;2.69;77.87;100176.03;10433969;27;97955;-78
2022/01/28 02:53:51;;;;;;;10.77;5.27;;;4.50;99.90;;;2.80;77.20;100185.69;10420499;27;96493;-78
2022/01/28 02:58:54;;;;;;;9.50;5.30;;;4.50;99.90;;;2.90;76.81;100188.47;10404760;28;96600;-78
2022/01/28 03:03:59;;;;;;;9.50;5.43;;;4.60;99.90;;;2.94;76.85;100197.78;10383221;27;96647;-78
2022/01/28 03:09:14;;;;;;;8.63;5.03;;;4.70;99.90;;;3.02;76.24;100203.25;10400811;27;96546;-77
2022/01/28 03:14:34;;;;;;;8.23;4.87;;;4.70;99.90;;;3.10;76.12;100197.41;10387389;27;98346;-77
2022/01/28 03:19:53;;;;;;;7.67;4.47;;;4.80;99.90;;;3.19;75.72;100201.94;10424169;27;97290;-78
2022/01/28 03:24:59;;;;;;;6.07;3.93;;;4.90;99.90;;;3.26;75.30;100192.63;10407441;27;96568;-78
2022/01/28 03:30:02;;;;;;;6.30;4.27;;;4.90;99.90;;;3.32;74.96;100200.00;10410715;27;96551;-77
2022/01/28 03:35:05;;;;;;;5.97;3.80;;;5.00;99.90;;;3.39;74.31;100195.94;10424236;27;96510;-77
2022/01/28 03:40:09;;;;;;;7.60;3.73;;;5.10;99.90;;;3.45;73.67;100192.81;10414515;27;96894;-78
2022/01/28 03:45:12;;;;;;;6.37;4.03;;;5.20;99.90;;;3.51;73.34;100182.78;10439852;27;96527;-77
2022/01/28 03:50:15;;;;;;;6.03;3.60;;;5.20;99.90;;;3.53;73.26;100194.00;10458198;27;96660;-78
2022/01/28 03:55:18;;;;;;;4.93;2.97;;;5.20;99.90;;;3.56;73.04;100199.84;10437329;27;96622;-78
2022/01/28 04:00:26;;;;;;;6.40;3.50;;;5.30;99.90;;;3.58;72.86;100207.59;10407632;27;96504;-77
2022/01/28 04:17:19;;;;;;;5.73;3.40;;;5.20;99.90;;;3.48;72.70;100202.28;10404982;27;96839;-78
2022/01/28 04:21:30;;;;;;;5.27;3.20;;;5.20;99.90;;;3.35;72.58;100191.03;10420443;27;97028;-79
2022/01/28 04:26:33;;;;;;;4.47;2.97;;;5.10;99.90;;;3.21;72.46;100184.25;10416581;27;96485;-78
2022/01/28 04:31:36;;;;;;;4.87;2.93;;;5.00;99.90;;;3.07;72.92;100203.75;10403413;27;96454;-78
2022/01/28 04:36:51;;;;;;;4.00;2.63;;;4.90;99.90;;;2.99;72.79;100200.03;10413070;27;96545;-78
2022/01/28 04:47:09;;;;;;;6.20;3.03;;;4.70;99.90;;;2.83;73.45;100201.22;10411628;27;96582;-77
2022/01/28 05:03:20;;;;;;;4.17;2.40;;;4.50;99.90;;;2.81;73.75;100226.72;10362928;27;99124;-79
2022/01/28 05:25:02;;;;;;;3.22;2.15;;;4.60;99.90;;;2.92;73.63;100239.88;10395928;27;98149;-78
2022/01/28 05:29:52;;;;;;;3.07;1.90;;;4.70;99.90;;;3.02;73.17;100252.31;10417818;27;96632;-78
2022/01/28 05:34:55;;;;;;;4.03;1.80;;;4.70;99.90;;;3.02;72.90;100262.81;10398559;27;96609;-78
2022/01/28 05:39:58;;;;;;;3.47;1.87;;;4.80;99.90;;;2.98;73.42;100283.19;10413996;27;96889;-77
2022/01/28 05:45:01;;;;;;;3.17;1.77;;;4.70;99.90;;;3.03;73.42;100281.06;10417488;27;96910;-79
2022/01/28 05:50:05;;;;;;;3.23;1.80;;;4.80;99.90;;;3.09;73.21;100292.88;10424882;27;96646;-78
2022/01/28 05:55:09;;;;;;;3.03;1.77;;;4.80;99.90;;;3.08;73.35;100293.84;10392808;27;96767;-76
2022/01/28 06:00:14;;;;;;;2.80;1.87;;;4.80;99.90;;;3.13;73.23;100292.53;10394062;27;97117;-77
2022/01/28 06:05:18;;;;;;;3.03;1.83;;;4.90;99.90;;;3.20;73.10;100288.47;10371182;27;96542;-77
2022/01/28 06:10:21;;;;;;;2.47;1.67;;;4.90;99.90;;;3.22;72.85;100286.56;10418890;27;96523;-77
2022/01/28 06:15:24;;;;;;;2.67;1.63;;;5.00;99.90;;;3.27;72.69;100294.09;10440844;27;96463;-77
2022/01/28 06:20:27;;;;;;;3.37;1.97;;;5.00;99.90;;;3.32;72.48;100306.88;10418246;27;98640;-77
2022/01/28 06:25:30;;;;;;;3.03;1.73;;;5.10;99.90;;;3.46;71.89;100330.28;10428339;27;96630;-77
2022/01/28 06:30:33;;;;;;;2.37;1.50;;;5.20;99.90;;;3.61;70.83;100325.63;10415038;27;96510;-77
2022/01/28 06:35:36;;;;;;;3.43;1.57;;;5.30;99.90;;;3.73;70.29;100337.81;10426679;27;96477;-76
2022/01/28 06:40:39;;;;;;;2.53;1.43;;;5.40;99.90;;;3.81;69.20;100343.28;10426025;27;96855;-78
2022/01/28 06:45:43;;;;;;;1.80;1.20;;;5.50;99.90;;;3.85;68.80;100352.59;10402672;27;96489;-78
2022/01/28 06:50:46;;;;;;;3.33;1.70;;;5.50;99.90;;;3.82;68.86;100352.84;10405029;27;96484;-78
2022/01/28 06:55:49;;;;;;;4.03;1.30;;;5.50;99.90;;;3.83;68.32;100336.09;10406176;28;98346;-79
2022/01/28 07:00:52;;;;;;;2.37;1.67;;;5.60;99.90;;;3.83;67.93;100315.06;10403911;27;96508;-78
2022/01/28 07:05:55;;;;;;;3.87;1.23;;;5.50;99.90;;;3.79;68.00;100316.28;10393420;27;96635;-78
2022/01/28 07:10:58;;;;;;;2.23;0.93;;;5.50;99.90;;;3.84;66.84;100311.50;10420688;28;96432;-78
2022/01/28 07:16:01;;;;;;;3.63;1.40;;;5.50;99.90;;;3.99;66.25;100315.53;10444685;27;96534;-78
2022/01/28 07:21:04;;;;;;;2.50;1.20;;;5.50;99.50;;;4.24;65.36;100310.91;10406421;28;96501;-77
2022/01/28 07:26:07;;;;;;;2.83;1.10;;;5.60;99.20;;;4.44;64.52;100307.53;10399696;27;97067;-79
2022/01/28 07:31:12;;;;;;;8.57;4.37;;;5.70;99.30;;;4.58;63.82;100322.16;10412306;27;97852;-82
2022/01/28 07:36:15;;;;;;;5.90;1.37;;;5.90;98.60;;;4.78;62.60;100316.06;10381194;28;98945;-79
2022/01/28 07:41:18;;;;;;;2.03;0.93;;;6.10;97.70;;;5.00;60.89;100309.84;10407595;27;96705;-77
2022/01/28 07:46:22;;;;;;;3.00;0.80;;;6.30;95.20;;;5.14;59.50;100311.31;10393923;27;96832;-80
2022/01/28 07:51:25;;;;;;;2.27;0.90;;;6.50;94.30;;;5.06;58.88;100308.50;10403996;28;97635;-82
2022/01/28 07:56:28;;;;;;;1.63;0.70;;;6.50;92.10;;;5.19;58.42;100303.84;10379064;28;97012;-80
2022/01/28 08:01:31;;;;;;;3.47;0.87;;;6.50;91.50;;;5.12;57.92;100325.59;10397771;28;96571;-79
2022/01/28 08:06:35;;;;;;;2.30;0.80;;;6.50;91.20;;;4.99;57.83;100328.44;10374450;28;96567;-80
2022/01/28 08:11:38;;;;;;;2.03;0.63;;;6.50;90.50;;;5.05;58.19;100338.44;10418080;27;96564;-80
2022/01/28 08:16:41;;;;;;;1.40;0.80;;;6.50;90.90;;;5.50;56.98;100331.03;10398461;27;97202;-76
2022/01/28 08:21:44;;;;;;;2.80;0.70;;;6.60;90.30;;;5.79;55.17;100332.97;10394191;28;97027;-76
2022/01/28 08:26:47;;;;;;;3.60;0.60;;;6.90;88.10;;;5.93;54.54;100300.13;10376071;28;98390;-77
2022/01/28 08:31:50;;;;;;;1.13;0.43;;;7.00;85.10;;;6.17;53.38;100298.78;10386000;27;97978;-77
2022/01/28 08:36:53;;;;;;;8.33;2.70;;;7.30;83.80;;;6.43;53.08;100319.38;10399616;27;97370;-78
2022/01/28 08:41:57;;;;;;;2.40;0.93;;;7.50;82.20;;;6.68;51.38;100320.63;10324460;28;96632;-76
2022/01/28 08:46:59;;;;;;;2.90;0.73;;;7.70;79.70;;;6.53;50.85;100327.28;10373132;28;97859;-77
2022/01/28 08:52:03;;;;;;;0.90;0.40;;;7.70;77.20;;;6.66;50.24;100338.44;10348266;28;96980;-77
2022/01/28 08:57:07;;;;;;;3.90;1.53;;;7.80;75.00;;;6.95;49.87;100348.97;10405302;27;98038;-77
2022/01/28 09:02:12;;;;;;;3.43;0.67;;;8.00;75.00;;;7.39;48.07;100378.38;10369075;28;96628;-78
2022/01/28 09:07:17;;;;;;;2.93;0.70;;;8.30;72.20;;;7.67;47.06;100363.38;10390705;27;97639;-77
2022/01/28 09:17:58;;;;;;;2.13;0.40;;;8.90;68.70;;;7.88;46.31;100326.97;10309445;28;96686;-77
2022/01/28 09:23:04;;;;;;;3.70;0.30;;;8.90;67.90;;;7.84;45.58;100319.47;10393222;28;96557;-77
2022/01/28 09:28:08;;;;;;;1.57;0.43;;;8.90;65.50;;;7.73;45.80;100321.31;10360398;28;96699;-76
2022/01/28 09:33:11;;;;;;;2.67;0.43;;;8.90;66.20;;;7.81;45.88;100331.19;10353426;28;98007;-78
2022/01/28 09:38:14;;;;;;;3.50;0.90;;;8.90;65.80;;;7.86;45.68;100315.72;10368609;27;96640;-76
2022/01/28 09:43:17;;;;;;;0.87;0.47;;;9.10;65.40;;;7.89;45.42;100317.22;10399482;28;96892;-77
2022/01/28 09:48:21;;;;;;;1.77;0.50;;;9.10;64.20;;;7.88;46.01;100299.69;10420649;27;98574;-76
2022/01/28 09:53:24;;;;;;;1.67;0.47;;;9.00;64.90;;;7.94;45.40;100299.09;10402166;27;98398;-78
2022/01/28 09:58:27;;;;;;;1.10;0.50;;;9.20;63.70;;;7.98;44.68;100332.22;10393622;27;96583;-77
2022/01/28 10:03:36;;;;;;;1.90;0.40;;;9.20;62.60;;;8.09;44.31;100315.28;10404388;27;96612;-77
2022/01/28 10:08:41;;;;;;;1.83;0.50;;;9.20;61.90;;;7.87;45.22;100337.72;10418272;27;96722;-76
2022/01/28 10:13:55;;;;;;;5.23;1.23;;;9.10;62.20;;;7.48;45.01;100335.22;10387482;27;96526;-76
2022/01/28 10:19:02;;;;;;;3.73;1.20;;;9.00;61.70;;;7.10;46.08;100358.13;10372707;28;96604;-77
2022/01/28 10:24:20;;;;;;;5.47;1.10;;;8.70;62.30;;;6.87;46.56;100380.53;10409177;27;97826;-77
2022/01/28 10:29:32;;;;;;;2.97;1.00;;;8.50;62.90;;;6.76;46.69;100375.38;10411687;27;96673;-76
2022/01/28 10:34:40;;;;;;;3.53;0.97;;;8.30;62.40;;;6.59;47.01;100374.25;10376771;28;96599;-77
2022/01/28 10:40:07;;;;;;;4.03;0.90;;;8.20;62.90;;;6.62;46.88;100377.47;10370727;28;96568;-77
2022/01/28 10:45:14;;;;;;;2.63;0.70;;;8.20;63.00;;;6.69;45.36;100365.38;10419599;27;97443;-77
2022/01/28 10:50:38;;;;;;;1.93;0.53;;;8.20;61.40;;;6.72;44.12;100359.00;10402121;27;97024;-78
2022/01/28 10:55:52;;;;;;;1.67;0.80;;;8.30;59.70;;;6.71;44.56;100360.78;10404652;28;96576;-77
2022/01/28 11:00:57;;;;;;;3.53;0.80;;;8.30;60.00;;;6.79;43.96;100354.00;10414114;27;97338;-76
2022/01/28 11:06:02;;;;;;;2.17;0.80;;;8.30;59.30;;;6.70;44.05;100364.41;10402077;27;97116;-78
2022/01/28 11:11:05;;;;;;;1.23;0.43;;;8.30;59.40;;;6.67;44.26;100351.50;10384898;27;96571;-78
2022/01/28 11:16:08;;;;;;;2.67;0.40;;;8.30;59.40;;;6.62;44.78;100374.00;10391273;27;97347;-76
2022/01/28 11:21:15;;;;;;;1.67;0.70;;;8.20;59.80;;;6.58;45.57;100372.59;10391643;27;96708;-77
2022/01/28 11:26:50;;;;;;;2.57;0.50;;;8.20;60.50;;;6.50;46.25;100378.56;10400084;27;96762;-77
2022/01/28 11:31:56;;;;;;;1.93;0.60;;;8.10;61.30;;;6.37;46.71;100381.47;10391360;27;96994;-76
2022/01/28 11:37:27;;;;;;;4.23;0.97;;;8.00;62.30;;;6.17;47.43;100417.53;10393858;27;98928;-76
2022/01/28 11:42:30;;;;;;;3.37;0.70;;;7.80;62.80;;;6.08;48.57;100391.97;10406326;27;97569;-78
2022/01/28 11:47:37;;;;;;;1.57;0.70;;;7.70;63.80;;;6.07;48.98;100415.84;10402147;28;96863;-77
2022/01/28 11:52:48;;;;;;;2.50;0.60;;;7.60;64.70;;;6.01;49.62;100404.03;10424252;27;96599;-77
2022/01/28 11:57:55;;;;;;;4.77;0.90;;;7.60;65.10;;;5.93;50.10;100422.28;10431989;27;96986;-77
2022/01/28 12:02:58;;;;;;;2.80;1.10;;;7.60;65.90;;;5.82;50.58;100407.38;10389554;28;96414;-77
2022/01/28 12:08:04;;;;;;;4.40;1.10;;;7.40;66.80;;;5.75;51.31;100408.03;10425337;27;96730;-77
2022/01/28 12:13:12;;;;;;;1.60;0.50;;;7.40;67.20;;;5.72;51.37;100406.50;10395794;28;96539;-76
2022/01/28 12:18:15;;;;;;;4.57;1.00;;;7.30;67.70;;;5.66;51.77;100408.84;10391480;28;96669;-77
2022/01/28 12:23:18;;;;;;;2.47;0.97;;;7.30;67.80;;;5.61;51.86;100411.84;10410429;28;96503;-76
2022/01/28 12:28:32;;;;;;;4.10;1.43;;;7.30;68.40;;;5.53;52.34;100417.78;10397761;28;96637;-77
2022/01/28 12:33:40;;;;;;;3.60;1.47;;;7.20;68.90;;;5.42;52.69;100395.94;10416012;28;96523;-77
2022/01/28 12:44:20;;;;;;;6.23;1.10;;;7.00;69.40;;;5.41;53.15;100402.19;10427396;27;98733;-77
2022/01/28 12:49:32;;;;;;;5.30;0.87;;;7.00;70.00;;;5.48;53.14;100392.78;10374291;28;96521;-77
2022/01/28 12:54:45;;;;;;;6.23;1.23;;;7.10;70.70;;;5.45;52.76;100399.13;10394130;28;96586;-78
2022/01/28 12:59:50;;;;;;;2.60;0.80;;;7.10;69.50;;;5.44;52.20;100381.66;10390003;28;96904;-77
2022/01/28 13:10:06;;;;;;;1.80;0.50;;;7.10;69.30;;;5.37;52.52;100383.13;10418764;27;97124;-76
2022/01/28 13:15:13;;;;;;;1.80;0.70;;;7.00;69.40;;;5.28;52.77;100389.19;10408341;28;96574;-77
2022/01/28 13:20:16;;;;;;;1.30;0.43;;;6.90;69.50;;;5.25;52.62;100403.44;10390675;27;96766;-77
2022/01/28 13:25:28;;;;;;;1.43;0.73;;;6.90;69.50;;;5.41;52.58;100418.00;10409773;27;96638;-76
2022/01/28 13:30:37;;;;;;;3.80;0.60;;;7.00;69.70;;;5.57;52.00;100429.72;10399172;27;96611;-77
2022/01/28 13:35:40;;;;;;;3.37;1.10;;;7.20;69.10;;;5.60;52.46;100432.09;10417073;27;96574;-76
2022/01/28 13:40:43;;;;;;;3.73;1.07;;;7.20;69.60;;;5.58;52.47;100409.50;10372449;28;96507;-76
2022/01/28 13:45:53;;;;;;;3.47;1.00;;;7.20;69.60;;;5.46;52.78;100424.53;10407713;27;96597;-78
2022/01/28 13:51:05;;;;;;;2.57;1.20;;;7.10;69.80;;;5.36;53.25;100437.66;10418705;27;96511;-76
2022/01/28 13:56:11;;;;;;;2.13;0.70;;;7.00;70.30;;;5.27;53.77;100464.75;10396561;27;96739;-79
2022/01/28 14:01:15;;;;;;;3.53;0.90;;;6.90;71.00;;;5.20;53.91;100458.31;10392676;27;98523;-76
2022/01/28 14:06:35;;;;;;;5.10;1.93;;;6.80;71.30;;;5.21;53.97;100467.91;10396809;27;97074;-76
2022/01/28 14:11:47;;;;;;;1.30;0.63;;;6.90;71.60;;;5.18;54.25;100454.16;10400571;27;98480;-76
2022/01/28 14:17:03;;;;;;;2.30;0.77;;;6.80;71.90;;;5.16;54.63;100446.38;10359175;28;96647;-77
2022/01/28 14:22:08;;;;;;;5.33;1.70;;;6.80;72.10;;;5.17;54.53;100463.03;10396879;27;97257;-77
2022/01/28 14:32:29;;;;;;;5.93;1.90;;;6.80;72.50;;;5.11;54.69;100464.38;10394231;27;97174;-76
2022/01/28 14:37:37;;;;;;;3.30;1.10;;;6.80;72.70;;;5.08;54.90;100494.41;10393715;28;98566;-78
2022/01/28 14:42:41;;;;;;;3.40;1.10;;;6.70;72.80;;;5.08;55.15;100506.75;10370915;28;96678;-78
2022/01/28 14:47:44;;;;;;;3.40;0.77;;;6.70;73.00;;;5.07;54.78;100505.09;10385815;28;96624;-76
2022/01/28 14:52:47;;;;;;;4.53;1.10;;;6.70;72.90;;;5.06;55.43;100527.13;10374022;28;96765;-76
2022/01/28 14:57:49;;;;;;;4.37;1.00;;;6.70;73.20;;;5.01;55.51;100538.03;10357036;28;96668;-77
2022/01/28 15:02:52;;;;;;;4.53;1.73;;;6.70;73.50;;;4.96;55.63;100548.09;10359055;28;96684;-77
2022/01/28 15:07:56;;;;;;;3.73;0.83;;;6.60;73.80;;;4.89;55.58;100520.59;10352132;28;98598;-76
2022/01/28 15:12:58;;;;;;;3.80;1.30;;;6.60;74.00;;;4.83;55.90;100532.44;10371658;28;97166;-78
2022/01/28 15:18:01;;;;;;;1.20;0.70;;;6.50;74.10;;;4.79;56.10;100519.63;10380063;28;97319;-78
2022/01/28 15:23:05;;;;;;;3.53;1.00;;;6.50;74.50;;;4.73;56.49;100514.84;10366210;28;96531;-78
2022/01/28 15:28:16;;;;;;;2.70;0.83;;;6.40;74.70;;;4.68;56.50;100543.34;10349781;28;96623;-77
2022/01/28 15:38:40;;;;;;;4.88;1.10;;;6.30;75.40;;;4.57;56.95;100565.28;10389499;28;96660;-77
2022/01/28 15:43:43;;;;;;;1.33;0.70;;;6.30;75.60;;;4.51;57.33;100550.78;10365928;27;96723;-77
2022/01/28 15:48:48;;;;;;;3.63;1.40;;;6.20;76.20;;;4.44;57.79;100567.19;10405621;27;97179;-76
2022/01/28 15:53:51;;;;;;;3.77;1.03;;;6.20;76.60;;;4.37;58.07;100560.72;10397073;27;96623;-76
2022/01/28 15:58:55;;;;;;;3.87;1.20;;;6.10;77.10;;;4.32;58.05;100573.38;10396828;28;97918;-76
2022/01/28 16:03:57;;;;;;;2.97;1.23;;;6.00;77.40;;;4.24;58.33;100556.41;10381868;27;96867;-75
2022/01/28 16:09:03;;;;;;;11.73;4.60;;;5.90;77.90;;;4.19;58.45;100531.41;10409263;27;96617;-75
2022/01/28 16:14:16;;;;;;;10.57;6.23;;;5.90;78.40;;;4.16;59.18;100539.53;10400958;28;96613;-76
2022/01/28 16:19:19;;;;;;;5.63;1.60;;;5.80;78.90;;;4.11;59.17;100539.88;10427194;27;98227;-76
2022/01/28 16:24:23;;;;;;;4.00;2.00;;;5.80;79.20;;;4.09;59.34;100533.09;10437024;27;97125;-76
2022/01/28 16:29:27;;;;;;;5.17;2.10;;;5.70;80.00;;;4.08;59.31;100539.28;10416663;27;97175;-76
2022/01/28 16:34:30;;;;;;;5.70;2.00;;;5.70;80.30;;;4.02;59.76;100532.72;10439469;27;97953;-76
2022/01/28 16:39:48;;;;;;;3.03;0.90;;;5.70;80.70;;;3.99;59.92;100543.47;10442875;27;96613;-76
2022/01/28 16:44:54;;;;;;;8.60;2.00;;;5.70;80.80;;;3.96;59.78;100547.19;10375866;27;96724;-75
2022/01/28 16:49:57;;;;;;;6.80;1.60;;;5.70;81.30;;;3.95;60.13;100548.09;10388991;27;98234;-76
2022/01/28 16:55:05;;;;;;;3.70;1.23;;;5.60;81.60;;;3.91;60.39;100565.09;10390331;27;98552;-76
2022/01/28 17:00:09;;;;;;;3.00;1.10;;;5.60;82.20;;;3.87;60.62;100566.25;10433615;27;96927;-76
2022/01/28 17:05:13;;;;;;;5.17;1.50;;;5.60;82.80;;;3.86;60.83;100584.78;10405415;27;96926;-77
2022/01/28 17:10:44;;;;;;;3.60;1.60;;;5.50;83.10;;;3.80;61.14;100593.13;10369292;27;98283;-76
2022/01/28 17:15:47;;;;;;;6.37;1.93;;;5.50;83.50;;;3.75;61.36;100599.56;10365085;27;96641;-76
2022/01/28 17:20:53;;;;;;;6.80;1.80;;;5.50;83.90;;;3.70;61.58;100606.13;10382868;28;98195;-76
2022/01/28 17:25:57;;;;;;;7.83;1.80;;;5.40;84.30;;;3.69;61.44;100620.22;10381916;27;98630;-77
2022/01/28 17:31:00;;;;;;;5.37;1.90;;;5.40;84.90;;;3.64;62.02;100614.47;10391805;27;97077;-77
2022/01/28 17:36:04;;;;;;;6.83;1.50;;;5.40;85.40;;;3.58;62.12;100634.13;10384892;27;98232;-76
2022/01/28 17:41:08;;;;;;;9.37;2.30;;;5.30;85.90;;;3.57;62.32;100636.88;10375940;28;97534;-76
2022/01/28 17:46:10;;;;;;;10.10;2.20;;;5.30;86.00;;;3.49;62.32;100648.81;10395931;27;98503;-76
2022/01/28 17:51:13;;;;;;;4.63;1.63;;;5.20;86.80;;;3.44;62.97;100640.41;10399412;27;97854;-76
2022/01/28 17:56:16;;;;;;;7.33;1.40;;;5.20;87.20;;;3.39;63.12;100636.44;10389877;27;96634;-76
2022/01/28 18:01:20;;;;;;;6.80;2.07;;;5.10;87.70;;;3.29;63.51;100641.50;10387756;27;97726;-77
2022/01/28 18:06:23;;;;;;;7.57;1.70;;;5.00;88.30;;;3.24;64.06;100656.78;10375867;28;98439;-77
2022/01/28 18:11:28;;;;;;;5.50;1.97;;;5.00;89.80;;;3.22;64.16;100651.63;10396588;27;98348;-76
2022/01/28 18:16:30;;;;;;;6.07;1.80;;;4.90;90.10;;;3.18;64.45;100641.47;10411086;27;97044;-77
2022/01/28 18:21:33;;;;;;;3.80;1.40;;;4.90;90.30;;;3.13;64.48;100668.03;10376774;28;98905;-76
2022/01/28 18:26:36;;;;;;;10.47;2.00;;;4.90;90.60;;;3.13;64.38;100669.84;10378731;27;96912;-76
2022/01/28 18:31:39;;;;;;;8.47;2.03;;;4.80;90.80;;;3.10;64.90;100696.28;10408536;27;97941;-76
2022/01/28 18:36:42;;;;;;;7.03;2.10;;;4.80;91.10;;;3.07;65.11;100683.41;10393815;27;96915;-76
2022/01/28 18:41:47;;;;;;;6.93;2.50;;;4.80;91.40;;;3.01;65.19;100687.28;10390730;27;96572;-77
2022/01/28 18:47:04;;;;;;;4.07;2.07;;;4.80;91.80;;;2.97;65.71;100717.31;10426872;27;96726;-78
2022/01/28 18:52:11;;;;;;;5.97;1.60;;;4.70;92.30;;;2.97;65.81;100711.22;10396532;28;97879;-77
2022/01/28 18:57:13;;;;;;;4.90;2.50;;;4.70;92.50;;;2.93;65.61;100727.19;10427823;27;96555;-78
2022/01/28 19:02:20;;;;;;;5.20;1.80;;;4.70;92.60;;;2.90;65.96;100719.53;10409964;27;96585;-77
2022/01/28 19:07:24;;;;;;;7.17;1.90;;;4.60;92.90;;;2.86;66.11;100731.19;10417130;27;98309;-77
2022/01/28 19:12:29;;;;;;;8.17;2.43;;;4.60;93.10;;;2.79;66.51;100737.81;10400074;27;96586;-77
2022/01/28 19:17:34;;;;;;;10.83;3.53;;;4.50;93.40;;;2.76;66.58;100742.41;10411235;27;98343;-77
2022/01/28 19:22:37;;;;;;;11.97;2.40;;;4.50;93.80;;;2.73;66.92;100738.22;10411182;27;96693;-76
2022/01/28 19:27:40;;;;;;;12.10;3.07;;;4.50;94.00;;;2.75;66.54;100743.34;10400380;27;96949;-76
2022/01/28 19:32:44;;;;;;;8.93;2.13;;;4.50;94.10;;;2.70;66.98;100743.69;10410357;28;96636;-76
2022/01/28 19:37:46;;;;;;;7.27;2.30;;;4.40;94.20;;;2.66;67.06;100736.97;10411601;27;97897;-77
2022/01/28 19:42:50;;;;;;;12.53;2.33;;;4.40;94.40;;;2.63;66.59;100745.03;10391109;27;96579;-77
2022/01/28 19:47:53;;;;;;;4.83;2.00;;;4.40;94.50;;;2.62;66.77;100749.44;10438751;27;98155;-77
2022/01/28 19:52:56;;;;;;;4.20;2.10;;;4.30;94.70;;;2.61;66.80;100766.13;10385703;27;97020;-77
2022/01/28 19:57:59;;;;;;;8.47;2.53;;;4.30;94.70;;;2.60;66.88;100788.06;10413239;27;98450;-76
2022/01/28 20:03:03;;;;;;;7.20;1.73;;;4.30;94.80;;;2.64;66.50;100804.47;10410516;27;96671;-77
2022/01/28 20:08:07;;;;;;;12.33;2.50;;;4.40;94.80;;;2.66;66.64;100810.44;10407466;27;96574;-77
2022/01/28 20:13:10;;;;;;;10.07;2.73;;;4.40;94.80;;;2.63;66.90;100818.50;10417875;27;97453;-77
2022/01/28 20:18:13;;;;;;;10.57;2.03;;;4.40;94.80;;;2.59;67.11;100807.38;10406489;27;96721;-76
2022/01/28 20:23:15;;;;;;;7.70;2.80;;;4.30;94.80;;;2.59;66.96;100814.41;10411675;27;97294;-77
2022/01/28 20:28:19;;;;;;;7.27;2.63;;;4.30;95.00;;;2.61;66.54;100825.66;10413480;27;96506;-77
2022/01/28 20:33:22;;;;;;;10.30;2.87;;;4.40;95.00;;;2.64;66.76;100825.44;10393085;27;97830;-77
2022/01/28 20:38:27;;;;;;;8.53;2.30;;;4.40;95.00;;;2.73;66.41;100837.94;10392064;28;97147;-78
2022/01/28 20:43:30;;;;;;;10.53;3.10;;;4.40;94.90;;;2.76;66.38;100845.63;10416174;27;97572;-77
2022/01/28 20:48:34;;;;;;;8.93;2.97;;;4.50;94.80;;;2.77;66.19;100841.22;10408805;27;96829;-78
2022/01/28 20:53:39;;;;;;;11.10;2.57;;;4.50;94.60;;;2.74;66.26;100839.63;10388166;27;97217;-77
2022/01/28 20:58:42;;;;;;;10.30;2.27;;;4.50;94.70;;;2.72;66.35;100843.31;10390736;28;96610;-78
2022/01/28 21:03:45;;;;;;;10.10;2.33;;;4.50;94.80;;;2.69;66.70;100841.72;10387415;27;98025;-77
2022/01/28 21:08:48;;;;;;;7.93;2.23;;;4.50;94.90;;;2.71;66.13;100863.47;10396421;27;96874;-77
2022/01/28 21:13:52;;;;;;;4.33;1.97;;;4.50;94.80;;;2.71;66.45;100860.84;10415717;28;96518;-78
2022/01/28 21:18:57;;;;;;;3.50;1.70;;;4.50;94.80;;;2.66;66.07;100850.63;10398177;27;96497;-77
2022/01/28 21:24:00;;;;;;;8.87;3.33;;;4.50;94.60;;;2.62;66.21;100862.28;10389032;27;96727;-77
2022/01/28 21:29:03;;;;;;;5.27;2.33;;;4.40;94.70;;;2.57;66.38;100853.00;10399783;27;96621;-78
2022/01/28 21:34:06;;;;;;;8.10;2.50;;;4.40;94.80;;;2.50;66.65;100864.84;10396624;27;97167;-77
2022/01/28 21:39:09;;;;;;;10.73;2.70;;;4.30;94.70;;;2.47;66.45;100855.41;10375367;28;98284;-78
2022/01/28 21:44:12;;;;;;;7.27;2.50;;;4.30;94.90;;;2.48;66.60;100874.63;10374514;28;96507;-77
2022/01/28 21:49:15;;;;;;;6.93;2.53;;;4.30;95.10;;;2.44;66.24;100875.75;10372253;28;96631;-78
2022/01/28 21:54:18;;;;;;;10.87;2.53;;;4.20;94.70;;;2.36;66.60;100884.97;10380240;28;96610;-77
2022/01/28 21:59:21;;;;;;;9.70;1.83;;;4.20;94.70;;;2.30;66.83;100889.75;10399726;28;96769;-77
2022/01/28 22:04:24;;;;;;;7.10;1.97;;;4.10;94.70;;;2.26;66.89;100889.09;10406877;27;96778;-78
2022/01/28 22:09:27;;;;;;;9.73;2.33;;;4.10;94.90;;;2.31;66.55;100888.81;10370608;28;98357;-76
2022/01/28 22:14:31;;;;;;;5.60;1.67;;;4.10;94.90;;;2.31;66.15;100892.28;10385446;28;97001;-77
2022/01/28 22:19:33;;;;;;;4.43;1.40;;;4.10;94.80;;;2.29;66.05;100907.28;10395177;28;96830;-77
2022/01/28 22:24:36;;;;;;;8.57;1.83;;;4.10;94.70;;;2.25;66.23;100910.19;10418051;27;96464;-77
2022/01/28 22:29:39;;;;;;;7.37;2.23;;;4.00;94.80;;;2.17;66.26;100922.94;10394851;27;96648;-76
2022/01/28 22:34:42;;;;;;;9.27;2.90;;;4.00;94.80;;;2.10;66.83;100931.19;10387909;27;98672;-76
2022/01/28 22:39:45;;;;;;;11.63;2.80;;;3.90;94.90;;;2.05;66.54;100941.13;10413596;28;97471;-77
2022/01/28 22:44:48;;;;;;;8.27;2.23;;;3.90;95.00;;;2.06;66.57;100945.44;10405887;28;96545;-76
2022/01/28 22:49:50;;;;;;;9.43;2.20;;;3.80;94.90;;;2.12;66.61;100960.78;10416972;27;98800;-77
2022/01/28 22:54:54;;;;;;;9.20;2.17;;;3.80;95.20;;;2.12;66.61;100954.69;10420253;27;96493;-76
2022/01/28 22:59:56;;;;;;;6.63;1.87;;;3.90;95.20;;;2.00;66.70;100976.44;10402459;28;96439;-76
2022/01/28 23:04:59;;;;;;;3.37;1.27;;;3.80;95.50;;;1.80;65.50;100978.50;10432372;27;96620;-77